Time;durP1;ratioP1;P1;durP2;ratioP2;P2;SDS_P1;SDS_P2;PMS_P1;PMS_P2;Temp;Humidity;BMP_temperature;BMP_pressure;BME280_temperature;BME280_humidity;BME280_pressure;Samples;Min_cycle;Max_cycle;Signal;HPM_P1;HPM_P2
2022/01/10 00:00:14;;;;;;;29.40;13.30;;;;;;;1.46;84.13;100887.63;5091696;28;20048;-77
2022/01/10 00:02:42;;;;;;;24.45;12.52;;;;;;;1.45;84.07;100882.47;5089932;28;20052;-77
2022/01/10 00:05:07;;;;;;;23.27;12.60;;;;;;;1.45;84.04;100899.31;5094751;28;20361;-77
2022/01/10 00:07:33;;;;;;;28.08;13.20;;;;;;;1.38;84.56;100896.47;5093947;28;20035;-77
2022/01/10 00:09:58;;;;;;;23.33;12.38;;;;;;;1.35;84.41;100904.78;5094501;28;20119;-76
2022/01/10 00:12:23;;;;;;;24.02;13.13;;;;;;;1.36;83.93;100914.47;5095258;28;20028;-77
2022/01/10 00:14:48;;;;;;;28.02;13.35;;;;;;;1.34;84.25;100907.63;5091894;28;20036;-77
2022/01/10 00:17:14;;;;;;;23.90;12.93;;;;;;;1.34;84.13;100915.63;5092403;28;20044;-77
2022/01/10 00:19:39;;;;;;;24.23;13.32;;;;;;;1.31;84.40;100916.75;5087759;28;20442;-77
2022/01/10 00:22:08;;;;;;;23.80;13.13;;;;;;;1.34;84.19;100923.63;5076087;28;20034;-77
2022/01/10 00:24:33;;;;;;;23.08;13.05;;;;;;;1.31;83.64;100926.59;5075011;28;20494;-77
2022/01/10 00:26:59;;;;;;;30.55;13.63;;;;;;;1.32;84.21;100926.44;5075011;28;20037;-77
2022/01/10 00:29:25;;;;;;;24.17;13.27;;;;;;;1.31;84.57;100926.59;5084081;28;20084;-77
2022/01/10 00:31:50;;;;;;;26.42;14.13;;;;;;;1.31;83.74;100918.59;5094579;28;20032;-77
2022/01/10 00:34:15;;;;;;;27.90;14.32;;;;;;;1.31;84.52;100923.94;5081907;28;20581;-77
2022/01/10 00:36:41;;;;;;;23.83;13.90;;;;;;;1.28;84.05;100924.25;5081690;28;20025;-77
2022/01/10 00:39:06;;;;;;;26.60;13.98;;;;;;;1.23;83.85;100922.91;5091427;28;20032;-77
2022/01/10 00:41:32;;;;;;;24.83;13.48;;;;;;;1.28;83.97;100932.25;5092966;28;20064;-77
2022/01/10 00:43:58;;;;;;;26.02;13.63;;;;;;;1.27;84.23;100933.25;5089500;28;20115;-77
2022/01/10 00:46:23;;;;;;;21.98;13.38;;;;;;;1.25;83.88;100938.75;5073787;28;20035;-77
2022/01/10 00:48:48;;;;;;;28.38;13.95;;;;;;;1.25;84.25;100936.06;5073275;28;20081;-77
2022/01/10 00:51:14;;;;;;;26.38;14.65;;;;;;;1.20;83.39;100941.91;5073243;28;20538;-77
2022/01/10 00:53:39;;;;;;;25.33;14.75;;;;;;;1.18;84.08;100951.91;5074197;28;20040;-77
2022/01/10 00:56:08;;;;;;;32.95;15.15;;;;;;;1.18;84.00;100953.75;5075062;28;20081;-77
2022/01/10 00:58:36;;;;;;;28.00;14.73;;;;;;;1.17;84.20;100958.22;5088190;28;20044;-77
2022/01/10 01:01:03;;;;;;;28.20;14.82;;;;;;;1.13;83.35;100964.84;5072030;28;20387;-77
2022/01/10 01:03:28;;;;;;;29.17;15.07;;;;;;;1.12;84.30;100965.88;5081781;28;20043;-77
2022/01/10 01:05:53;;;;;;;26.33;14.52;;;;;;;1.13;84.42;100970.19;5094551;28;20024;-77
2022/01/10 01:08:19;;;;;;;34.33;15.65;;;;;;;1.12;83.93;100968.53;5094136;28;20040;-77
2022/01/10 01:13:29;;;;;;;30.58;15.80;;;;;;;1.11;84.43;100976.69;5092753;28;20391;-77
2022/01/10 01:24:08;;;;;;;29.65;15.05;;;;;;;1.06;84.15;101006.47;5073910;28;20078;-77
2022/01/10 01:26:33;;;;;;;27.75;15.30;;;;;;;1.07;84.07;101018.78;5073830;28;20459;-77
2022/01/10 01:28:58;;;;;;;28.50;15.45;;;;;;;1.06;83.70;101023.31;5073135;28;20036;-77
2022/01/10 01:31:24;;;;;;;26.27;14.93;;;;;;;1.04;83.98;101019.97;5074971;28;20059;-77
2022/01/10 01:33:49;;;;;;;30.45;15.32;;;;;;;1.02;84.26;101026.44;5091465;28;20074;-77
2022/01/10 01:36:20;;;;;;;28.75;14.80;;;;;;;0.99;83.67;101029.44;5091548;28;20365;-77
2022/01/10 01:38:45;;;;;;;29.57;15.50;;;;;;;0.95;83.35;101025.41;5073540;28;20039;-77
2022/01/10 01:41:24;;;;;;;23.92;14.30;;;;;;;0.91;83.73;101024.88;5072404;28;20029;-77
2022/01/10 01:43:51;;;;;;;31.48;15.52;;;;;;;0.88;83.99;101025.19;5072183;28;20032;-77
2022/01/10 01:46:18;;;;;;;26.23;14.85;;;;;;;0.87;84.16;101045.66;5073509;28;20450;-77
2022/01/10 01:48:44;;;;;;;29.10;14.95;;;;;;;0.88;83.83;101050.00;5073332;28;20032;-77
2022/01/10 01:51:09;;;;;;;35.35;15.70;;;;;;;0.86;84.49;101053.81;5090760;28;20039;-77
2022/01/10 01:53:36;;;;;;;27.52;15.93;;;;;;;0.91;84.00;101062.19;5072998;28;20433;-77
2022/01/10 01:56:06;;;;;;;26.35;15.25;;;;;;;0.93;84.17;101062.03;5073537;28;20063;-77
2022/01/10 01:58:32;;;;;;;31.70;15.57;;;;;;;0.96;84.18;101064.38;5073909;28;20106;-77
2022/01/10 02:00:58;;;;;;;32.35;15.82;;;;;;;0.97;84.02;101066.06;5086638;28;20039;-76
2022/01/10 02:03:23;;;;;;;29.80;15.70;;;;;;;0.99;84.84;101069.41;5092078;28;20032;-77
2022/01/10 02:05:48;;;;;;;29.63;15.65;;;;;;;0.98;84.70;101070.38;5093418;28;20032;-77
2022/01/10 02:08:14;;;;;;;28.83;15.75;;;;;;;1.00;84.39;101066.56;5091960;28;20509;-77
2022/01/10 02:10:39;;;;;;;29.98;15.73;;;;;;;1.01;84.20;101078.06;5090241;28;20028;-77
2022/01/10 02:13:04;;;;;;;33.20;16.15;;;;;;;1.00;83.99;101076.41;5091869;28;20032;-77
2022/01/10 02:15:36;;;;;;;27.92;16.10;;;;;;;0.98;84.91;101083.69;5078037;28;20055;-78
2022/01/10 02:18:02;;;;;;;28.55;15.25;;;;;;;0.96;84.75;101075.03;5086158;28;20028;-77
2022/01/10 02:20:30;;;;;;;32.22;15.18;;;;;;;0.98;84.45;101084.56;5074536;28;20464;-77
2022/01/10 02:22:56;;;;;;;36.00;15.20;;;;;;;1.00;84.48;101087.06;5089427;28;20490;-77
2022/01/10 02:25:21;;;;;;;28.55;15.23;;;;;;;0.98;84.51;101078.38;5073993;28;20059;-77
2022/01/10 02:27:48;;;;;;;31.08;15.55;;;;;;;1.00;85.34;101095.88;5072783;28;20445;-77
2022/01/10 02:30:13;;;;;;;28.80;15.80;;;;;;;0.98;85.52;101099.69;5071563;28;20035;-77
2022/01/10 02:32:38;;;;;;;29.17;15.60;;;;;;;1.05;84.80;101095.41;5092632;28;20044;-77
2022/01/10 02:35:04;;;;;;;29.98;15.93;;;;;;;1.08;85.05;101102.28;5091813;28;20054;-77
2022/01/10 02:37:34;;;;;;;32.33;15.13;;;;;;;1.09;84.88;101102.13;5092391;28;20032;-77
2022/01/10 02:40:03;;;;;;;30.10;15.02;;;;;;;1.08;84.86;101099.59;5082509;28;20036;-77
2022/01/10 02:42:28;;;;;;;26.55;15.77;;;;;;;1.11;85.38;101115.28;5072711;28;20055;-77
2022/01/10 02:44:54;;;;;;;29.45;15.23;;;;;;;1.15;85.45;101127.31;5072093;28;20476;-77
2022/01/10 02:47:19;;;;;;;29.92;16.02;;;;;;;1.16;84.60;101123.63;5072685;28;20059;-78
2022/01/10 02:49:45;;;;;;;30.50;16.10;;;;;;;1.16;85.28;101140.50;5088428;28;20071;-78
2022/01/10 02:52:10;;;;;;;33.03;15.07;;;;;;;1.16;85.51;101145.81;5091428;28;20043;-77
2022/01/10 02:54:35;;;;;;;29.25;15.98;;;;;;;1.17;85.36;101142.13;5091558;28;20252;-78
2022/01/10 02:57:00;;;;;;;40.67;19.95;;;;;;;1.15;85.48;101145.97;5090916;28;20028;-77
2022/01/10 02:59:26;;;;;;;34.22;17.52;;;;;;;1.13;85.74;101158.59;5092745;28;20446;-77
2022/01/10 03:01:52;;;;;;;33.95;16.38;;;;;;;1.13;85.95;101172.75;5083866;28;20031;-77
2022/01/10 03:04:17;;;;;;;31.88;16.83;;;;;;;1.10;86.30;101167.72;5092134;28;20069;-78
2022/01/10 03:06:44;;;;;;;34.97;16.63;;;;;;;1.06;86.42;101169.88;5090324;28;20114;-77
2022/01/10 03:09:11;;;;;;;31.30;16.42;;;;;;;1.15;86.25;101169.97;5091145;28;20492;-77
2022/01/10 03:11:39;;;;;;;34.45;16.65;;;;;;;1.14;86.16;101185.09;5079819;28;20093;-78
2022/01/10 03:14:05;;;;;;;32.92;16.95;;;;;;;1.15;86.14;101181.44;5072169;28;20048;-78
2022/01/10 03:16:30;;;;;;;32.33;17.17;;;;;;;1.17;86.29;101181.28;5072181;28;20459;-78
2022/01/10 03:18:56;;;;;;;32.15;16.23;;;;;;;1.18;86.21;101189.13;5075867;28;20174;-77
2022/01/10 03:21:21;;;;;;;30.52;15.57;;;;;;;1.17;86.09;101198.13;5071024;28;20063;-73
2022/01/10 03:23:48;;;;;;;30.35;16.25;;;;;;;1.18;86.08;101194.47;5072160;28;20031;-73
2022/01/10 03:26:13;;;;;;;35.05;16.35;;;;;;;1.20;85.99;101189.81;5072512;28;20463;-76
2022/01/10 03:28:38;;;;;;;29.42;15.82;;;;;;;1.20;85.31;101199.66;5071842;28;20048;-77
2022/01/10 03:31:04;;;;;;;31.35;16.02;;;;;;;1.20;85.54;101205.81;5072089;28;20130;-81
2022/01/10 03:33:29;;;;;;;31.17;15.65;;;;;;;1.20;85.01;101204.97;5089579;28;20115;-77
2022/01/10 03:35:54;;;;;;;30.60;15.75;;;;;;;1.17;85.24;101206.13;5092190;28;20044;-81
2022/01/10 03:38:20;;;;;;;31.85;15.88;;;;;;;1.16;85.46;101217.78;5077087;28;20391;-78
2022/01/10 03:40:45;;;;;;;32.25;16.25;;;;;;;1.19;85.42;101219.28;5092878;28;20036;-75
2022/01/10 03:43:11;;;;;;;28.80;16.17;;;;;;;1.17;85.97;101224.78;5096037;28;20039;-75
2022/01/10 03:45:36;;;;;;;28.13;15.73;;;;;;;1.17;86.16;101238.09;5074764;28;20055;-76
2022/01/10 03:48:01;;;;;;;27.80;15.70;;;;;;;1.18;85.64;101236.28;5075800;28;20028;-79
2022/01/10 03:50:27;;;;;;;27.85;15.55;;;;;;;1.18;85.23;101246.97;5075936;28;20028;-78
2022/01/10 03:52:52;;;;;;;30.02;16.40;;;;;;;1.16;85.45;101249.78;5083721;28;20048;-74
2022/01/10 03:55:18;;;;;;;32.17;16.88;;;;;;;1.16;85.36;101254.25;5096151;28;20497;-75
2022/01/10 03:57:43;;;;;;;29.38;15.43;;;;;;;1.15;85.83;101256.09;5095241;28;20424;-79
2022/01/10 04:00:09;;;;;;;29.08;14.95;;;;;;;1.17;85.57;101251.44;5083339;28;20051;-76
2022/01/10 04:02:36;;;;;;;29.23;15.68;;;;;;;1.15;85.68;101269.41;5087310;28;20028;-78
2022/01/10 04:05:01;;;;;;;28.20;16.50;;;;;;;1.13;85.74;101271.38;5094386;28;20061;-77
2022/01/10 04:07:26;;;;;;;27.67;16.08;;;;;;;1.13;85.81;101268.72;5095152;28;20112;-78
2022/01/10 04:09:52;;;;;;;27.30;15.55;;;;;;;1.11;85.45;101269.88;5080643;28;20028;-77
2022/01/10 04:12:18;;;;;;;30.52;15.93;;;;;;;1.10;85.87;101277.00;5075313;28;20040;-76
2022/01/10 04:14:43;;;;;;;33.40;16.15;;;;;;;1.14;85.78;101275.72;5078472;28;20031;-77
2022/01/10 04:17:08;;;;;;;29.73;16.33;;;;;;;1.19;85.82;101269.94;5078850;28;20032;-78
2022/01/10 04:19:34;;;;;;;29.90;15.75;;;;;;;1.21;86.08;101282.13;5089996;28;20059;-79
2022/01/10 04:21:59;;;;;;;34.97;16.45;;;;;;;1.22;86.40;101269.63;5088711;28;20110;-78
2022/01/10 04:24:24;;;;;;;28.52;15.77;;;;;;;1.28;86.45;101289.50;5075348;28;20050;-74
2022/01/10 04:26:50;;;;;;;29.52;16.63;;;;;;;1.28;86.80;101282.34;5076687;28;20024;-79
2022/01/10 04:29:15;;;;;;;34.80;16.40;;;;;;;1.34;86.54;101300.41;5075262;28;20448;-75
2022/01/10 04:31:40;;;;;;;35.97;16.27;;;;;;;1.33;87.08;101290.75;5075163;28;20036;-74
2022/01/10 04:34:06;;;;;;;31.27;16.50;;;;;;;1.37;87.29;101307.25;5089731;28;20093;-75
2022/01/10 04:36:31;;;;;;;31.55;16.35;;;;;;;1.40;86.74;101302.47;5077319;28;20039;-75
2022/01/10 04:38:56;;;;;;;32.08;16.65;;;;;;;1.39;86.46;101310.63;5074783;28;20029;-75
2022/01/10 04:41:22;;;;;;;31.35;16.75;;;;;;;1.30;87.06;101330.19;5076790;28;20130;-76
2022/01/10 04:43:47;;;;;;;29.73;16.98;;;;;;;1.29;86.83;101331.19;5094977;28;20043;-78
2022/01/10 04:46:12;;;;;;;36.22;17.27;;;;;;;1.30;87.28;101330.19;5083586;28;20036;-75
2022/01/10 04:48:37;;;;;;;37.58;17.83;;;;;;;1.28;87.50;101335.66;5081484;28;20036;-76
2022/01/10 04:51:13;;;;;;;35.65;17.35;;;;;;;1.24;86.79;101343.16;5073343;28;20105;-77
2022/01/10 04:53:41;;;;;;;28.38;16.55;;;;;;;1.21;87.06;101354.13;5073481;28;20024;-74
2022/01/10 04:56:06;;;;;;;31.90;17.27;;;;;;;1.27;87.78;101359.81;5073170;28;20501;-75
2022/01/10 04:58:34;;;;;;;36.10;17.13;;;;;;;1.30;87.40;101362.19;5092538;28;20083;-76
2022/01/10 05:00:59;;;;;;;35.63;17.58;;;;;;;1.32;86.73;101368.22;5072100;28;20098;-77
2022/01/10 05:03:24;;;;;;;33.13;17.58;;;;;;;1.33;86.93;101376.06;5074648;28;20463;-77
2022/01/10 05:05:53;;;;;;;30.48;17.27;;;;;;;1.35;87.11;101383.91;5074565;28;20029;-76
2022/01/10 05:08:20;;;;;;;36.17;17.75;;;;;;;1.38;87.05;101380.94;5072898;28;20036;-76
2022/01/10 05:10:45;;;;;;;38.05;17.67;;;;;;;1.37;87.92;101379.25;5073118;28;20021;-77
2022/01/10 05:13:10;;;;;;;31.38;18.23;;;;;;;1.44;87.88;101398.19;5074343;28;20046;-77
2022/01/10 05:15:35;;;;;;;33.92;17.50;;;;;;;1.40;87.64;101402.97;5077750;28;20033;-75
2022/01/10 05:18:01;;;;;;;30.45;18.15;;;;;;;1.42;87.83;101404.50;5092330;28;20398;-78
2022/01/10 05:20:26;;;;;;;34.72;17.52;;;;;;;1.41;87.43;101409.97;5075437;28;20082;-78
2022/01/10 05:22:51;;;;;;;36.33;18.58;;;;;;;1.41;87.71;101408.13;5083982;28;20028;-77
2022/01/10 05:25:17;;;;;;;33.97;19.25;;;;;;;1.46;87.90;101412.19;5092803;28;20109;-75
2022/01/10 05:27:42;;;;;;;29.10;17.83;;;;;;;1.41;87.62;101431.31;5092639;28;20032;-78
2022/01/10 05:30:08;;;;;;;31.48;17.95;;;;;;;1.41;87.48;101426.81;5092441;28;20024;-76
2022/01/10 05:32:34;;;;;;;34.53;18.48;;;;;;;1.48;87.83;101427.06;5093488;28;20032;-77
2022/01/10 05:34:59;;;;;;;30.15;18.17;;;;;;;1.52;88.14;101422.25;5092236;28;20039;-78
2022/01/10 05:37:24;;;;;;;36.53;19.08;;;;;;;1.52;87.56;101439.09;5092072;28;20382;-76
2022/01/10 05:39:49;;;;;;;35.28;19.40;;;;;;;1.54;87.52;101442.47;5093285;28;20089;-75
2022/01/10 05:42:15;;;;;;;31.67;18.58;;;;;;;1.53;87.40;101453.28;5084809;28;20040;-77
2022/01/10 05:44:40;;;;;;;37.13;18.58;;;;;;;1.52;87.69;101454.25;5073790;28;20028;-75
2022/01/10 05:47:06;;;;;;;34.10;19.08;;;;;;;1.56;87.80;101455.66;5092095;28;20047;-77
2022/01/10 05:49:34;;;;;;;37.92;18.48;;;;;;;1.54;87.46;101449.59;5081889;28;20388;-78
2022/01/10 05:52:00;;;;;;;38.63;19.17;;;;;;;1.58;88.19;101465.16;5108325;28;20043;-78
2022/01/10 05:54:27;;;;;;;41.85;19.40;;;;;;;1.57;88.12;101467.97;5108082;28;20030;-77
2022/01/10 05:56:53;;;;;;;36.50;19.73;;;;;;;1.59;87.94;101468.69;5092246;28;20043;-76
2022/01/10 05:59:19;;;;;;;37.40;19.33;;;;;;;1.60;87.53;101473.00;5091486;28;20056;-76
2022/01/10 06:01:44;;;;;;;35.83;19.77;;;;;;;1.61;87.93;101474.69;5091127;28;20032;-76
2022/01/10 06:04:09;;;;;;;36.15;19.42;;;;;;;1.61;87.39;101466.69;5092336;28;20028;-79
2022/01/10 06:06:35;;;;;;;35.38;19.73;;;;;;;1.59;87.62;101466.84;5091442;28;20028;-76
2022/01/10 06:09:00;;;;;;;36.88;19.38;;;;;;;1.57;87.94;101479.50;5071833;28;20391;-78
2022/01/10 06:11:25;;;;;;;35.38;18.58;;;;;;;1.59;87.66;101485.50;5072031;28;20039;-76
2022/01/10 06:13:50;;;;;;;35.67;20.13;;;;;;;1.61;87.91;101500.53;5073037;28;20136;-75
2022/01/10 06:16:16;;;;;;;38.05;19.75;;;;;;;1.56;87.62;101501.00;5074149;28;20506;-77
2022/01/10 06:18:41;;;;;;;39.85;19.38;;;;;;;1.62;87.83;101500.38;5083648;28;20029;-78
2022/01/10 06:21:07;;;;;;;38.63;19.15;;;;;;;1.59;87.36;101508.69;5073368;28;20396;-78
2022/01/10 06:23:32;;;;;;;35.15;19.08;;;;;;;1.60;88.17;101510.34;5077321;28;20058;-76
2022/01/10 06:25:58;;;;;;;34.38;20.02;;;;;;;1.61;87.89;101513.88;5092794;28;20028;-77
2022/01/10 06:28:23;;;;;;;34.13;19.10;;;;;;;1.61;88.05;101521.88;5090344;28;20036;-75
2022/01/10 06:30:48;;;;;;;31.80;19.98;;;;;;;1.61;87.73;101527.22;5071666;28;20035;-77
2022/01/10 06:33:14;;;;;;;34.80;19.23;;;;;;;1.61;88.35;101532.56;5072676;28;20472;-75
2022/01/10 06:35:39;;;;;;;36.72;19.80;;;;;;;1.64;88.24;101540.25;5083074;28;20123;-77
2022/01/10 06:38:04;;;;;;;37.28;20.30;;;;;;;1.65;88.32;101544.63;5092597;28;20054;-77
2022/01/10 06:40:30;;;;;;;37.65;19.17;;;;;;;1.65;87.52;101550.78;5092906;28;20036;-79
2022/01/10 06:42:55;;;;;;;32.97;19.75;;;;;;;1.66;88.50;101557.81;5077140;28;20036;-79
2022/01/10 06:45:20;;;;;;;36.30;19.17;;;;;;;1.65;88.36;101549.94;5071414;28;20028;-75
2022/01/10 06:47:49;;;;;;;35.47;19.42;;;;;;;1.65;88.15;101560.63;5071366;28;20482;-80
2022/01/10 06:50:15;;;;;;;31.73;18.77;;;;;;;1.68;88.01;101563.00;5072368;28;20032;-80
2022/01/10 06:52:41;;;;;;;36.72;20.10;;;;;;;1.66;88.22;101559.63;5082842;28;20093;-80
2022/01/10 06:55:07;;;;;;;34.55;20.05;;;;;;;1.69;88.36;101565.50;5092915;28;20036;-80
2022/01/10 06:57:32;;;;;;;34.13;19.42;;;;;;;1.66;87.89;101579.16;5091118;28;20040;-80
2022/01/10 06:59:57;;;;;;;32.65;19.55;;;;;;;1.66;87.67;101570.28;5087528;28;20098;-80
2022/01/10 07:02:26;;;;;;;32.33;19.02;;;;;;;1.66;88.27;101575.63;5070292;28;20531;-82
2022/01/10 07:04:51;;;;;;;35.22;19.88;;;;;;;1.64;88.02;101583.78;5071364;28;20036;-81
2022/01/10 07:07:16;;;;;;;36.78;19.55;;;;;;;1.69;88.51;101588.66;5071086;28;20391;-83
2022/01/10 07:09:44;;;;;;;32.10;18.63;;;;;;;1.70;88.35;101596.50;5071622;28;20458;-82
2022/01/10 07:12:10;;;;;;;36.95;18.80;;;;;;;1.69;88.00;101613.53;5077937;28;20479;-80
2022/01/10 07:14:36;;;;;;;35.58;19.75;;;;;;;1.72;88.27;101609.72;5091368;28;20043;-81
2022/01/10 07:17:01;;;;;;;29.73;19.05;;;;;;;1.70;87.91;101612.53;5081367;28;20043;-81
2022/01/10 07:19:26;;;;;;;38.47;19.75;;;;;;;1.68;88.00;101619.03;5086058;28;20035;-80
2022/01/10 07:21:52;;;;;;;32.58;18.90;;;;;;;1.66;88.07;101616.50;5074363;28;20039;-80
2022/01/10 07:24:20;;;;;;;37.65;19.85;;;;;;;1.68;88.66;101630.53;5070879;28;20119;-80
2022/01/10 07:26:45;;;;;;;33.42;19.02;;;;;;;1.67;88.35;101636.00;5072279;28;20029;-79
2022/01/10 07:29:12;;;;;;;34.25;19.63;;;;;;;1.71;88.49;101651.56;5071701;28;20248;-80
2022/01/10 07:31:38;;;;;;;33.70;19.58;;;;;;;1.71;88.56;101650.75;5071080;28;20029;-80
2022/01/10 07:34:06;;;;;;;34.58;18.23;;;;;;;1.74;88.44;101655.78;5070755;28;20036;-80
2022/01/10 07:36:31;;;;;;;32.72;19.92;;;;;;;1.73;87.99;101656.75;5072061;28;20472;-80
2022/01/10 07:38:57;;;;;;;37.08;19.77;;;;;;;1.74;88.69;101656.63;5050015;28;20088;-80
2022/01/10 07:41:22;;;;;;;36.53;19.77;;;;;;;1.79;88.10;101668.69;5055765;28;20033;-80
2022/01/10 07:43:48;;;;;;;35.72;19.50;;;;;;;1.79;88.32;101677.53;5051773;28;20056;-80
2022/01/10 07:46:17;;;;;;;37.53;20.30;;;;;;;1.74;87.38;101682.47;5062182;28;20043;-80
2022/01/10 07:48:47;;;;;;;33.83;20.35;;;;;;;1.71;87.43;101688.09;5056532;28;20024;-80
2022/01/10 07:51:12;;;;;;;31.77;19.73;;;;;;;1.72;88.08;101692.44;5068052;28;20024;-79
2022/01/10 07:53:39;;;;;;;37.38;20.08;;;;;;;1.75;87.80;101705.47;5070021;28;20039;-80
2022/01/10 07:56:06;;;;;;;36.28;21.17;;;;;;;1.75;87.58;101709.00;5071540;28;20036;-78
2022/01/10 07:58:32;;;;;;;38.95;20.70;;;;;;;1.78;87.87;101715.84;5066654;28;20041;-84
2022/01/10 08:00:57;;;;;;;34.05;20.38;;;;;;;1.76;87.62;101718.69;5065687;28;20051;-77
2022/01/10 08:03:22;;;;;;;36.50;20.73;;;;;;;1.72;87.81;101719.97;5069954;28;20040;-75
2022/01/10 08:05:48;;;;;;;39.63;21.33;;;;;;;1.76;87.40;101736.53;5071678;28;20483;-83
2022/01/10 08:08:14;;;;;;;37.28;21.25;;;;;;;1.78;87.77;101734.53;5069469;28;20024;-81
2022/01/10 08:10:39;;;;;;;35.90;21.15;;;;;;;1.74;87.00;101735.84;5069972;28;20466;-78
2022/01/10 08:13:04;;;;;;;40.50;21.58;;;;;;;1.76;87.51;101750.69;5069574;28;20040;-82
2022/01/10 08:15:30;;;;;;;35.75;20.13;;;;;;;1.80;87.29;101751.28;5063396;28;20456;-82
2022/01/10 08:17:56;;;;;;;34.17;20.67;;;;;;;1.77;87.03;101754.22;5052491;28;20033;-75
2022/01/10 08:20:21;;;;;;;40.10;21.27;;;;;;;1.76;87.17;101755.19;5064821;28;20039;-79
2022/01/10 08:22:46;;;;;;;36.72;19.85;;;;;;;1.73;87.33;101764.34;5069575;28;20021;-77
2022/01/10 08:25:12;;;;;;;37.90;20.42;;;;;;;1.77;86.96;101768.41;5055823;28;20025;-80
2022/01/10 08:27:37;;;;;;;36.80;20.73;;;;;;;1.80;87.11;101769.94;5055290;28;20044;-81
2022/01/10 08:30:03;;;;;;;34.50;20.08;;;;;;;1.84;87.35;101768.69;5070681;28;20443;-80
2022/01/10 08:32:29;;;;;;;34.45;19.88;;;;;;;1.84;86.75;101773.16;5058763;28;20036;-76
2022/01/10 08:34:55;;;;;;;34.28;20.48;;;;;;;1.87;86.96;101784.41;5074737;28;20035;-78
2022/01/10 08:37:21;;;;;;;38.42;20.55;;;;;;;1.87;87.00;101784.41;5073864;28;20036;-75
2022/01/10 08:39:49;;;;;;;33.05;19.83;;;;;;;1.87;87.36;101800.41;5064862;28;20053;-78
2022/01/10 08:42:16;;;;;;;33.70;19.98;;;;;;;1.89;87.25;101800.28;5074288;28;20103;-77
2022/01/10 08:44:41;;;;;;;33.60;18.92;;;;;;;1.91;87.14;101811.63;5073280;28;20032;-79
2022/01/10 08:47:07;;;;;;;34.25;19.30;;;;;;;1.95;87.32;101826.38;5068710;28;20086;-77
2022/01/10 08:49:32;;;;;;;35.30;19.48;;;;;;;1.97;87.58;101823.56;5063084;28;20103;-79
2022/01/10 08:51:57;;;;;;;31.83;19.10;;;;;;;1.98;86.89;101834.09;5073906;28;20048;-79
2022/01/10 08:54:23;;;;;;;32.90;19.20;;;;;;;1.99;87.43;101837.59;5074336;28;20414;-78
2022/01/10 08:56:50;;;;;;;33.53;19.23;;;;;;;2.04;87.52;101848.69;5073039;28;20027;-78
2022/01/10 08:59:15;;;;;;;32.60;19.02;;;;;;;2.03;86.81;101847.03;5061286;28;20049;-79
2022/01/10 09:01:42;;;;;;;33.28;18.98;;;;;;;2.03;87.01;101847.03;5070548;28;20043;-82
2022/01/10 09:04:15;;;;;;;30.85;19.00;;;;;;;2.06;86.79;101860.91;5067333;28;20032;-81
2022/01/10 09:06:41;;;;;;;34.28;19.65;;;;;;;2.04;86.63;101864.69;5054067;28;20479;-79
2022/01/10 09:09:07;;;;;;;29.23;18.52;;;;;;;2.03;86.66;101863.88;5070859;28;20032;-79
2022/01/10 09:11:32;;;;;;;31.45;19.48;;;;;;;2.01;85.99;101860.50;5073942;28;20460;-80
2022/01/10 09:13:57;;;;;;;33.28;20.27;;;;;;;2.06;86.90;101870.75;5073553;28;20029;-80
2022/01/10 09:16:22;;;;;;;35.53;20.70;;;;;;;2.07;87.11;101870.63;5073896;28;20036;-81
2022/01/10 09:18:48;;;;;;;29.73;19.05;;;;;;;2.10;86.95;101880.19;5074214;28;20067;-82
2022/01/10 09:21:13;;;;;;;29.80;19.08;;;;;;;2.09;86.43;101876.66;5056054;28;20025;-79
2022/01/10 09:23:38;;;;;;;29.45;18.70;;;;;;;2.09;86.96;101875.81;5052505;28;20025;-76
2022/01/10 09:26:07;;;;;;;29.73;19.88;;;;;;;2.11;87.14;101876.50;5058294;28;20032;-79
2022/01/10 09:28:32;;;;;;;34.25;20.95;;;;;;;2.18;87.20;101884.78;5062939;28;20054;-79
2022/01/10 09:30:57;;;;;;;29.00;19.65;;;;;;;2.20;86.87;101883.66;5072482;28;20567;-78
2022/01/10 09:33:23;;;;;;;30.25;19.92;;;;;;;2.22;86.97;101892.38;5072113;28;20033;-78
2022/01/10 09:35:50;;;;;;;35.22;20.25;;;;;;;2.22;86.23;101894.19;5072417;28;20375;-77
2022/01/10 09:38:16;;;;;;;32.13;20.73;;;;;;;2.22;86.49;101897.72;5071919;28;20043;-75
2022/01/10 09:40:41;;;;;;;30.70;20.58;;;;;;;2.23;86.40;101901.22;5062249;28;20032;-75
2022/01/10 09:43:07;;;;;;;32.67;20.90;;;;;;;2.25;86.64;101907.25;5073034;28;20542;-83
2022/01/10 09:45:34;;;;;;;30.80;20.00;;;;;;;2.28;86.14;101901.63;5070373;28;20025;-79
2022/01/10 09:48:00;;;;;;;31.52;20.40;;;;;;;2.29;85.99;101908.66;5071761;28;20391;-76
2022/01/10 09:50:25;;;;;;;29.00;19.02;;;;;;;2.23;85.12;101907.38;5073295;28;20132;-77
2022/01/10 09:52:51;;;;;;;31.80;20.05;;;;;;;2.29;86.04;101916.66;5071239;28;20507;-78
2022/01/10 09:55:16;;;;;;;30.42;20.13;;;;;;;2.27;85.47;101914.13;5069806;28;20032;-76
2022/01/10 09:57:42;;;;;;;33.20;19.05;;;;;;;2.34;86.10;101918.91;5073288;28;20486;-85
2022/01/10 10:00:10;;;;;;;28.23;18.55;;;;;;;2.35;85.99;101926.75;5071635;28;20044;-80
2022/01/10 10:02:36;;;;;;;29.27;18.08;;;;;;;2.38;85.49;101926.47;5069699;28;20082;-82
2022/01/10 10:05:12;;;;;;;29.13;18.77;;;;;;;2.43;85.47;101928.72;5073024;28;20498;-85
2022/01/10 10:07:39;;;;;;;29.38;19.05;;;;;;;2.48;85.78;101940.66;5072030;28;20478;-77
2022/01/10 10:10:11;;;;;;;28.90;17.80;;;;;;;2.48;85.38;101945.16;5073393;28;20033;-80
2022/01/10 10:12:44;;;;;;;27.52;17.55;;;;;;;2.55;85.48;101953.44;5071617;28;20063;-75
2022/01/10 10:15:12;;;;;;;26.67;17.42;;;;;;;2.57;85.11;101962.16;5061739;28;20039;-75
2022/01/10 10:17:39;;;;;;;27.85;16.77;;;;;;;2.61;85.70;101971.56;5053197;28;20057;-76
2022/01/10 10:20:21;;;;;;;27.38;18.02;;;;;;;2.68;85.91;101978.00;5052624;28;20456;-76
2022/01/10 10:22:50;;;;;;;29.52;17.65;;;;;;;2.70;85.53;101986.72;5053634;28;20039;-76
2022/01/10 10:25:15;;;;;;;24.42;17.17;;;;;;;2.79;85.37;101990.34;5072802;28;20033;-75
2022/01/10 10:27:43;;;;;;;24.17;15.68;;;;;;;3.09;87.10;101999.97;5071598;28;20039;-75
2022/01/10 10:30:16;;;;;;;28.55;17.40;;;;;;;3.00;85.06;102000.84;5059327;28;20163;-78
2022/01/10 10:32:41;;;;;;;26.55;17.83;;;;;;;2.96;84.54;102005.66;5071755;28;20039;-77
2022/01/10 10:35:08;;;;;;;26.25;17.73;;;;;;;2.97;84.67;101998.47;5069169;28;20046;-77
2022/01/10 10:37:38;;;;;;;25.75;17.45;;;;;;;2.93;84.49;102002.41;5077481;28;20467;-72
2022/01/10 10:40:09;;;;;;;28.77;18.13;;;;;;;2.96;84.81;102007.47;5090680;28;20028;-78
2022/01/10 10:42:39;;;;;;;28.63;17.73;;;;;;;3.05;85.26;102003.06;5092771;28;20051;-78
2022/01/10 10:45:10;;;;;;;28.40;18.50;;;;;;;3.16;85.30;102016.28;5092584;28;20495;-76
2022/01/10 10:47:39;;;;;;;28.63;18.35;;;;;;;3.18;84.92;102009.75;5091033;28;20082;-85
2022/01/10 10:50:07;;;;;;;29.48;18.23;;;;;;;3.21;84.82;102008.63;5052639;28;20033;-85
2022/01/10 10:52:34;;;;;;;28.15;17.77;;;;;;;3.22;84.74;102010.31;5052655;28;20021;-86
2022/01/10 10:55:16;;;;;;;27.83;18.55;;;;;;;3.28;84.54;102004.38;5051006;28;20043;-84
2022/01/10 10:57:43;;;;;;;26.05;17.98;;;;;;;3.28;84.49;102012.41;5051224;28;20036;-84
2022/01/10 11:00:15;;;;;;;27.25;18.33;;;;;;;3.35;84.84;102013.50;5050545;28;20136;-81
2022/01/10 11:02:43;;;;;;;25.90;18.05;;;;;;;3.39;85.07;102013.22;5055649;28;20048;-78
2022/01/10 11:05:09;;;;;;;27.27;17.58;;;;;;;3.42;85.01;102019.09;5070321;28;20468;-79
2022/01/10 11:07:35;;;;;;;25.25;17.52;;;;;;;3.48;84.13;102031.03;5063813;28;20033;-77
2022/01/10 11:10:04;;;;;;;29.83;18.00;;;;;;;3.50;84.45;102021.03;5069562;28;20024;-77
2022/01/10 11:12:31;;;;;;;28.40;17.10;;;;;;;3.54;84.10;102036.63;5060265;28;20041;-76
2022/01/10 11:14:59;;;;;;;27.52;16.33;;;;;;;3.60;84.58;102040.56;5072492;28;20033;-71
2022/01/10 11:17:24;;;;;;;28.13;15.82;;;;;;;3.59;84.36;102038.84;5072036;28;20077;-76
2022/01/10 11:20:08;;;;;;;25.60;16.25;;;;;;;3.71;84.63;102051.06;5070633;28;20036;-79
2022/01/10 11:22:36;;;;;;;27.92;15.55;;;;;;;3.65;83.58;102048.13;5070657;28;20112;-75